sensor_id;sensor_type;location;lat;lon;timestamp;temperature;humidity
72940;DHT22;61094;51.154;13.570;2023-09-07T00:01:48;16.50;99.90
72940;DHT22;61094;51.154;13.570;2023-09-07T00:06:53;16.50;99.90
72940;DHT22;61094;51.154;13.570;2023-09-07T00:11:56;16.40;99.90
72940;DHT22;61094;51.154;13.570;2023-09-07T00:16:58;16.40;99.90
72940;DHT22;61094;51.154;13.570;2023-09-07T00:22:00;16.30;99.90
72940;DHT22;61094;51.154;13.570;2023-09-07T00:27:03;16.20;99.90
72940;DHT22;61094;51.154;13.570;2023-09-07T00:32:06;16.00;99.90
72940;DHT22;61094;51.154;13.570;2023-09-07T00:37:09;16.00;99.90
72940;DHT22;61094;51.154;13.570;2023-09-07T00:42:12;15.90;99.90
72940;DHT22;61094;51.154;13.570;2023-09-07T00:47:14;15.90;99.90
72940;DHT22;61094;51.154;13.570;2023-09-07T00:52:17;15.90;99.90
72940;DHT22;61094;51.154;13.570;2023-09-07T00:57:21;15.80;99.90
72940;DHT22;61094;51.154;13.570;2023-09-07T01:02:23;15.70;99.90
72940;DHT22;61094;51.154;13.570;2023-09-07T01:07:29;15.60;99.90
72940;DHT22;61094;51.154;13.570;2023-09-07T01:12:34;15.60;99.90
72940;DHT22;61094;51.154;13.570;2023-09-07T01:17:36;15.50;99.90
72940;DHT22;61094;51.154;13.570;2023-09-07T01:22:40;15.40;99.90
72940;DHT22;61094;51.154;13.570;2023-09-07T01:27:43;15.40;99.90
72940;DHT22;61094;51.154;13.570;2023-09-07T01:32:45;15.30;99.90
72940;DHT22;61094;51.154;13.570;2023-09-07T01:37:48;15.30;99.90
72940;DHT22;61094;51.154;13.570;2023-09-07T01:42:50;15.20;99.90
72940;DHT22;61094;51.154;13.570;2023-09-07T01:47:51;15.10;99.90
72940;DHT22;61094;51.154;13.570;2023-09-07T01:52:54;15.10;99.90
72940;DHT22;61094;51.154;13.570;2023-09-07T01:57:56;15.10;99.90
72940;DHT22;61094;51.154;13.570;2023-09-07T02:02:58;15.00;99.90
72940;DHT22;61094;51.154;13.570;2023-09-07T02:08:01;14.90;99.90
72940;DHT22;61094;51.154;13.570;2023-09-07T02:13:04;14.90;99.90
72940;DHT22;61094;51.154;13.570;2023-09-07T02:18:06;14.90;99.90
72940;DHT22;61094;51.154;13.570;2023-09-07T02:23:09;14.80;99.90
72940;DHT22;61094;51.154;13.570;2023-09-07T02:28:11;14.70;99.90
72940;DHT22;61094;51.154;13.570;2023-09-07T02:33:13;14.70;99.90
72940;DHT22;61094;51.154;13.570;2023-09-07T02:38:16;14.70;99.90
72940;DHT22;61094;51.154;13.570;2023-09-07T02:43:18;14.60;99.90
72940;DHT22;61094;51.154;13.570;2023-09-07T02:48:20;14.50;99.90
72940;DHT22;61094;51.154;13.570;2023-09-07T02:53:24;14.40;99.90
72940;DHT22;61094;51.154;13.570;2023-09-07T02:58:26;14.40;99.90
72940;DHT22;61094;51.154;13.570;2023-09-07T03:03:28;14.40;99.90
72940;DHT22;61094;51.154;13.570;2023-09-07T03:08:32;14.40;99.90
72940;DHT22;61094;51.154;13.570;2023-09-07T03:13:34;14.20;99.90
72940;DHT22;61094;51.154;13.570;2023-09-07T03:18:36;14.10;99.90
72940;DHT22;61094;51.154;13.570;2023-09-07T03:23:40;14.00;99.90
72940;DHT22;61094;51.154;13.570;2023-09-07T03:28:45;13.90;99.90
72940;DHT22;61094;51.154;13.570;2023-09-07T03:33:47;13.90;99.90
72940;DHT22;61094;51.154;13.570;2023-09-07T03:38:51;13.90;99.90
72940;DHT22;61094;51.154;13.570;2023-09-07T03:43:53;13.90;99.90
72940;DHT22;61094;51.154;13.570;2023-09-07T03:48:55;13.80;99.90
72940;DHT22;61094;51.154;13.570;2023-09-07T03:53:58;13.80;99.90
72940;DHT22;61094;51.154;13.570;2023-09-07T03:59:00;13.80;99.90
72940;DHT22;61094;51.154;13.570;2023-09-07T04:04:04;13.70;99.90
72940;DHT22;61094;51.154;13.570;2023-09-07T04:09:08;13.60;99.90
72940;DHT22;61094;51.154;13.570;2023-09-07T04:14:10;13.60;99.90
72940;DHT22;61094;51.154;13.570;2023-09-07T04:19:12;13.50;99.90
72940;DHT22;61094;51.154;13.570;2023-09-07T04:24:16;13.50;99.90
72940;DHT22;61094;51.154;13.570;2023-09-07T04:29:18;13.40;99.90
72940;DHT22;61094;51.154;13.570;2023-09-07T04:34:20;13.40;99.90
72940;DHT22;61094;51.154;13.570;2023-09-07T04:39:24;13.30;99.90
72940;DHT22;61094;51.154;13.570;2023-09-07T04:44:27;13.30;99.90
72940;DHT22;61094;51.154;13.570;2023-09-07T04:49:29;13.40;99.90
72940;DHT22;61094;51.154;13.570;2023-09-07T04:54:32;13.40;99.90
72940;DHT22;61094;51.154;13.570;2023-09-07T04:59:35;13.40;99.90
72940;DHT22;61094;51.154;13.570;2023-09-07T05:04:37;13.50;99.90
72940;DHT22;61094;51.154;13.570;2023-09-07T05:09:40;13.50;99.90
72940;DHT22;61094;51.154;13.570;2023-09-07T05:14:42;13.50;99.90
72940;DHT22;61094;51.154;13.570;2023-09-07T05:19:44;13.60;99.90
72940;DHT22;61094;51.154;13.570;2023-09-07T05:24:48;13.60;99.90
72940;DHT22;61094;51.154;13.570;2023-09-07T05:29:49;13.60;99.90
72940;DHT22;61094;51.154;13.570;2023-09-07T05:34:51;13.70;99.90
72940;DHT22;61094;51.154;13.570;2023-09-07T05:39:55;13.70;99.90
72940;DHT22;61094;51.154;13.570;2023-09-07T05:44:57;13.80;99.90
72940;DHT22;61094;51.154;13.570;2023-09-07T05:49:58;13.90;99.90
72940;DHT22;61094;51.154;13.570;2023-09-07T05:55:02;14.00;99.90
72940;DHT22;61094;51.154;13.570;2023-09-07T06:00:05;14.10;99.90
72940;DHT22;61094;51.154;13.570;2023-09-07T06:05:14;14.10;99.90
72940;DHT22;61094;51.154;13.570;2023-09-07T06:10:17;14.20;99.90
72940;DHT22;61094;51.154;13.570;2023-09-07T06:15:21;14.40;99.90
72940;DHT22;61094;51.154;13.570;2023-09-07T06:20:23;14.60;99.90
72940;DHT22;61094;51.154;13.570;2023-09-07T06:25:26;14.80;99.90
72940;DHT22;61094;51.154;13.570;2023-09-07T06:30:28;15.00;99.90
72940;DHT22;61094;51.154;13.570;2023-09-07T06:35:30;15.30;99.90
72940;DHT22;61094;51.154;13.570;2023-09-07T06:40:34;15.50;99.90
72940;DHT22;61094;51.154;13.570;2023-09-07T06:45:35;15.80;99.90
72940;DHT22;61094;51.154;13.570;2023-09-07T06:50:37;16.10;99.90
72940;DHT22;61094;51.154;13.570;2023-09-07T06:55:41;16.30;99.90
72940;DHT22;61094;51.154;13.570;2023-09-07T07:00:43;16.60;99.90
72940;DHT22;61094;51.154;13.570;2023-09-07T07:05:46;16.80;99.90
72940;DHT22;61094;51.154;13.570;2023-09-07T07:10:49;17.10;99.90
72940;DHT22;61094;51.154;13.570;2023-09-07T07:15:51;17.40;99.90
72940;DHT22;61094;51.154;13.570;2023-09-07T07:20:54;17.70;99.90
72940;DHT22;61094;51.154;13.570;2023-09-07T07:25:57;18.00;99.90
72940;DHT22;61094;51.154;13.570;2023-09-07T07:31:07;18.50;99.90
72940;DHT22;61094;51.154;13.570;2023-09-07T07:36:09;19.00;99.90
72940;DHT22;61094;51.154;13.570;2023-09-07T07:41:12;19.50;97.90
72940;DHT22;61094;51.154;13.570;2023-09-07T07:46:15;20.10;94.90
72940;DHT22;61094;51.154;13.570;2023-09-07T07:51:18;20.60;93.90
72940;DHT22;61094;51.154;13.570;2023-09-07T07:56:25;21.30;91.90
72940;DHT22;61094;51.154;13.570;2023-09-07T08:01:29;21.80;86.30
72940;DHT22;61094;51.154;13.570;2023-09-07T08:06:33;22.30;79.10
72940;DHT22;61094;51.154;13.570;2023-09-07T08:11:37;22.70;75.30
72940;DHT22;61094;51.154;13.570;2023-09-07T08:16:40;23.10;68.80
72940;DHT22;61094;51.154;13.570;2023-09-07T08:21:42;23.50;62.90
72940;DHT22;61094;51.154;13.570;2023-09-07T08:26:47;23.90;59.80
72940;DHT22;61094;51.154;13.570;2023-09-07T08:31:51;24.30;50.50
72940;DHT22;61094;51.154;13.570;2023-09-07T08:36:54;24.60;52.90
72940;DHT22;61094;51.154;13.570;2023-09-07T08:42:00;25.00;45.60
72940;DHT22;61094;51.154;13.570;2023-09-07T08:47:04;25.40;42.30
72940;DHT22;61094;51.154;13.570;2023-09-07T08:52:07;25.70;40.70
72940;DHT22;61094;51.154;13.570;2023-09-07T08:57:12;26.10;40.10
72940;DHT22;61094;51.154;13.570;2023-09-07T09:02:15;26.60;38.70
72940;DHT22;61094;51.154;13.570;2023-09-07T09:07:17;26.90;37.00
72940;DHT22;61094;51.154;13.570;2023-09-07T09:12:20;27.20;36.10
72940;DHT22;61094;51.154;13.570;2023-09-07T09:17:24;27.40;35.40
72940;DHT22;61094;51.154;13.570;2023-09-07T09:22:26;27.80;36.20
72940;DHT22;61094;51.154;13.570;2023-09-07T09:27:29;28.20;33.80
72940;DHT22;61094;51.154;13.570;2023-09-07T09:32:31;28.40;32.00
72940;DHT22;61094;51.154;13.570;2023-09-07T09:37:33;28.70;32.60
72940;DHT22;61094;51.154;13.570;2023-09-07T09:42:37;28.90;31.50
72940;DHT22;61094;51.154;13.570;2023-09-07T09:47:41;29.10;31.50
72940;DHT22;61094;51.154;13.570;2023-09-07T09:52:43;29.50;30.20
72940;DHT22;61094;51.154;13.570;2023-09-07T09:57:47;29.90;30.10
72940;DHT22;61094;51.154;13.570;2023-09-07T10:02:55;30.30;29.20
72940;DHT22;61094;51.154;13.570;2023-09-07T10:08:11;30.30;28.20
72940;DHT22;61094;51.154;13.570;2023-09-07T10:13:16;30.50;29.50
72940;DHT22;61094;51.154;13.570;2023-09-07T10:18:33;30.60;29.00
72940;DHT22;61094;51.154;13.570;2023-09-07T10:23:37;31.00;28.00
72940;DHT22;61094;51.154;13.570;2023-09-07T10:28:40;31.20;27.80
72940;DHT22;61094;51.154;13.570;2023-09-07T10:33:42;31.40;27.70
72940;DHT22;61094;51.154;13.570;2023-09-07T10:38:44;31.10;26.20
72940;DHT22;61094;51.154;13.570;2023-09-07T10:43:49;31.10;26.60
72940;DHT22;61094;51.154;13.570;2023-09-07T10:48:52;31.20;27.00
72940;DHT22;61094;51.154;13.570;2023-09-07T10:53:56;31.70;26.90
72940;DHT22;61094;51.154;13.570;2023-09-07T10:58:59;32.20;26.50
72940;DHT22;61094;51.154;13.570;2023-09-07T11:04:01;32.00;26.50
72940;DHT22;61094;51.154;13.570;2023-09-07T11:09:04;31.80;25.20
72940;DHT22;61094;51.154;13.570;2023-09-07T11:14:10;31.70;25.20
72940;DHT22;61094;51.154;13.570;2023-09-07T11:19:13;31.80;25.10
72940;DHT22;61094;51.154;13.570;2023-09-07T11:24:15;31.70;24.70
72940;DHT22;61094;51.154;13.570;2023-09-07T11:29:19;31.80;24.80
72940;DHT22;61094;51.154;13.570;2023-09-07T11:34:21;31.80;24.60
72940;DHT22;61094;51.154;13.570;2023-09-07T11:39:22;31.70;23.80
72940;DHT22;61094;51.154;13.570;2023-09-07T11:44:26;31.60;24.60
72940;DHT22;61094;51.154;13.570;2023-09-07T11:49:27;31.50;23.80
72940;DHT22;61094;51.154;13.570;2023-09-07T11:54:30;31.60;23.70
72940;DHT22;61094;51.154;13.570;2023-09-07T11:59:33;31.80;24.10
72940;DHT22;61094;51.154;13.570;2023-09-07T12:04:35;32.20;24.50
72940;DHT22;61094;51.154;13.570;2023-09-07T12:09:38;32.10;23.40
72940;DHT22;61094;51.154;13.570;2023-09-07T12:14:43;32.30;23.60
72940;DHT22;61094;51.154;13.570;2023-09-07T12:19:46;32.00;23.50
72940;DHT22;61094;51.154;13.570;2023-09-07T12:24:48;31.90;24.80
72940;DHT22;61094;51.154;13.570;2023-09-07T12:29:51;32.00;24.60
72940;DHT22;61094;51.154;13.570;2023-09-07T12:34:53;32.10;24.90
72940;DHT22;61094;51.154;13.570;2023-09-07T12:39:55;32.20;25.10
72940;DHT22;61094;51.154;13.570;2023-09-07T12:44:58;32.30;25.40
72940;DHT22;61094;51.154;13.570;2023-09-07T12:50:00;32.40;25.50
72940;DHT22;61094;51.154;13.570;2023-09-07T12:55:02;32.40;25.50
72940;DHT22;61094;51.154;13.570;2023-09-07T13:00:06;32.50;25.60
72940;DHT22;61094;51.154;13.570;2023-09-07T13:05:08;32.50;25.70
72940;DHT22;61094;51.154;13.570;2023-09-07T13:10:10;32.40;25.30
72940;DHT22;61094;51.154;13.570;2023-09-07T13:15:13;32.40;25.50
72940;DHT22;61094;51.154;13.570;2023-09-07T13:20:15;32.50;25.80
72940;DHT22;61094;51.154;13.570;2023-09-07T13:25:17;32.60;25.20
72940;DHT22;61094;51.154;13.570;2023-09-07T13:30:20;32.50;25.20
72940;DHT22;61094;51.154;13.570;2023-09-07T13:35:22;32.40;24.90
72940;DHT22;61094;51.154;13.570;2023-09-07T13:40:24;32.10;24.80
72940;DHT22;61094;51.154;13.570;2023-09-07T13:45:31;31.90;24.90
72940;DHT22;61094;51.154;13.570;2023-09-07T13:50:33;31.80;24.70
72940;DHT22;61094;51.154;13.570;2023-09-07T13:55:35;32.00;24.70
72940;DHT22;61094;51.154;13.570;2023-09-07T14:00:42;32.10;24.80
72940;DHT22;61094;51.154;13.570;2023-09-07T14:05:44;32.00;24.70
72940;DHT22;61094;51.154;13.570;2023-09-07T14:10:45;32.20;25.60
72940;DHT22;61094;51.154;13.570;2023-09-07T14:15:49;32.20;24.00
72940;DHT22;61094;51.154;13.570;2023-09-07T14:20:51;32.30;24.60
72940;DHT22;61094;51.154;13.570;2023-09-07T14:25:53;32.60;24.40
72940;DHT22;61094;51.154;13.570;2023-09-07T14:30:57;32.50;24.70
72940;DHT22;61094;51.154;13.570;2023-09-07T14:36:04;32.50;25.40
72940;DHT22;61094;51.154;13.570;2023-09-07T14:41:06;32.40;26.00
72940;DHT22;61094;51.154;13.570;2023-09-07T14:46:09;32.30;26.00
72940;DHT22;61094;51.154;13.570;2023-09-07T14:51:11;32.00;26.30
72940;DHT22;61094;51.154;13.570;2023-09-07T14:56:13;31.80;26.30
72940;DHT22;61094;51.154;13.570;2023-09-07T15:01:16;31.70;26.60
72940;DHT22;61094;51.154;13.570;2023-09-07T15:06:18;31.70;26.40
72940;DHT22;61094;51.154;13.570;2023-09-07T15:11:21;31.90;26.40
72940;DHT22;61094;51.154;13.570;2023-09-07T15:16:25;31.90;25.90
72940;DHT22;61094;51.154;13.570;2023-09-07T15:21:27;31.60;26.20
72940;DHT22;61094;51.154;13.570;2023-09-07T15:26:39;31.30;26.40
72940;DHT22;61094;51.154;13.570;2023-09-07T15:31:42;31.30;26.70
72940;DHT22;61094;51.154;13.570;2023-09-07T15:36:44;31.20;26.60
72940;DHT22;61094;51.154;13.570;2023-09-07T15:41:46;31.00;26.80
72940;DHT22;61094;51.154;13.570;2023-09-07T15:46:51;30.90;27.40
72940;DHT22;61094;51.154;13.570;2023-09-07T15:51:53;30.50;27.30
72940;DHT22;61094;51.154;13.570;2023-09-07T15:56:55;30.30;28.00
72940;DHT22;61094;51.154;13.570;2023-09-07T16:01:58;30.10;27.90
72940;DHT22;61094;51.154;13.570;2023-09-07T16:07:00;29.80;28.00
72940;DHT22;61094;51.154;13.570;2023-09-07T16:12:03;29.40;28.80
72940;DHT22;61094;51.154;13.570;2023-09-07T16:17:07;29.10;28.80
72940;DHT22;61094;51.154;13.570;2023-09-07T16:22:08;28.90;29.10
72940;DHT22;61094;51.154;13.570;2023-09-07T16:27:10;28.60;29.00
72940;DHT22;61094;51.154;13.570;2023-09-07T16:32:13;28.40;29.30
72940;DHT22;61094;51.154;13.570;2023-09-07T16:37:17;28.10;29.50
72940;DHT22;61094;51.154;13.570;2023-09-07T16:42:19;27.90;30.00
72940;DHT22;61094;51.154;13.570;2023-09-07T16:47:24;27.70;30.60
72940;DHT22;61094;51.154;13.570;2023-09-07T16:52:26;27.50;31.30
72940;DHT22;61094;51.154;13.570;2023-09-07T16:57:32;27.20;31.40
72940;DHT22;61094;51.154;13.570;2023-09-07T17:02:36;27.00;32.10
72940;DHT22;61094;51.154;13.570;2023-09-07T17:07:38;26.80;32.40
72940;DHT22;61094;51.154;13.570;2023-09-07T17:12:40;26.60;32.60
72940;DHT22;61094;51.154;13.570;2023-09-07T17:17:43;26.50;33.50
72940;DHT22;61094;51.154;13.570;2023-09-07T17:22:45;26.30;34.00
72940;DHT22;61094;51.154;13.570;2023-09-07T17:27:47;26.10;34.10
72940;DHT22;61094;51.154;13.570;2023-09-07T17:32:50;25.90;34.80
72940;DHT22;61094;51.154;13.570;2023-09-07T17:37:56;25.70;35.30
72940;DHT22;61094;51.154;13.570;2023-09-07T17:42:58;25.40;36.20
72940;DHT22;61094;51.154;13.570;2023-09-07T17:48:01;25.20;36.30
72940;DHT22;61094;51.154;13.570;2023-09-07T17:53:03;25.10;37.10
72940;DHT22;61094;51.154;13.570;2023-09-07T17:58:05;25.00;37.50
72940;DHT22;61094;51.154;13.570;2023-09-07T18:03:08;24.70;38.30
72940;DHT22;61094;51.154;13.570;2023-09-07T18:08:10;24.60;38.90
72940;DHT22;61094;51.154;13.570;2023-09-07T18:13:12;24.50;39.70
72940;DHT22;61094;51.154;13.570;2023-09-07T18:18:15;24.40;39.70
72940;DHT22;61094;51.154;13.570;2023-09-07T18:23:18;24.20;40.70
72940;DHT22;61094;51.154;13.570;2023-09-07T18:28:20;24.10;41.60
72940;DHT22;61094;51.154;13.570;2023-09-07T18:33:23;24.00;42.60
72940;DHT22;61094;51.154;13.570;2023-09-07T18:38:25;23.80;43.70
72940;DHT22;61094;51.154;13.570;2023-09-07T18:43:28;23.70;44.30
72940;DHT22;61094;51.154;13.570;2023-09-07T18:48:32;23.50;46.50
72940;DHT22;61094;51.154;13.570;2023-09-07T18:53:34;23.50;46.60
72940;DHT22;61094;51.154;13.570;2023-09-07T18:58:36;23.30;49.40
72940;DHT22;61094;51.154;13.570;2023-09-07T19:03:43;23.20;51.60
72940;DHT22;61094;51.154;13.570;2023-09-07T19:08:45;23.10;53.50
72940;DHT22;61094;51.154;13.570;2023-09-07T19:13:47;22.90;55.70
72940;DHT22;61094;51.154;13.570;2023-09-07T19:18:50;22.80;58.80
72940;DHT22;61094;51.154;13.570;2023-09-07T19:23:52;22.70;58.80
72940;DHT22;61094;51.154;13.570;2023-09-07T19:28:54;22.60;58.80
72940;DHT22;61094;51.154;13.570;2023-09-07T19:33:57;22.50;60.60
72940;DHT22;61094;51.154;13.570;2023-09-07T19:38:59;22.40;60.70
72940;DHT22;61094;51.154;13.570;2023-09-07T19:44:01;22.30;67.50
72940;DHT22;61094;51.154;13.570;2023-09-07T19:49:05;22.10;65.40
72940;DHT22;61094;51.154;13.570;2023-09-07T19:54:07;21.90;66.60
72940;DHT22;61094;51.154;13.570;2023-09-07T19:59:08;21.80;70.60
72940;DHT22;61094;51.154;13.570;2023-09-07T20:04:12;21.80;75.80
72940;DHT22;61094;51.154;13.570;2023-09-07T20:09:15;21.60;69.30
72940;DHT22;61094;51.154;13.570;2023-09-07T20:14:18;21.50;76.80
72940;DHT22;61094;51.154;13.570;2023-09-07T20:19:21;21.40;75.40
72940;DHT22;61094;51.154;13.570;2023-09-07T20:24:23;21.30;77.70
72940;DHT22;61094;51.154;13.570;2023-09-07T20:29:25;21.20;78.20
72940;DHT22;61094;51.154;13.570;2023-09-07T20:34:28;21.10;77.50
72940;DHT22;61094;51.154;13.570;2023-09-07T20:39:30;20.90;78.70
72940;DHT22;61094;51.154;13.570;2023-09-07T20:44:32;20.80;85.00
72940;DHT22;61094;51.154;13.570;2023-09-07T20:49:35;20.70;87.80
72940;DHT22;61094;51.154;13.570;2023-09-07T20:54:37;20.50;84.50
72940;DHT22;61094;51.154;13.570;2023-09-07T20:59:38;20.50;89.60
72940;DHT22;61094;51.154;13.570;2023-09-07T21:04:42;20.40;89.80
72940;DHT22;61094;51.154;13.570;2023-09-07T21:09:44;20.40;85.20
72940;DHT22;61094;51.154;13.570;2023-09-07T21:14:47;20.30;90.20
72940;DHT22;61094;51.154;13.570;2023-09-07T21:19:51;20.20;86.90
72940;DHT22;61094;51.154;13.570;2023-09-07T21:24:52;20.00;90.60
72940;DHT22;61094;51.154;13.570;2023-09-07T21:29:54;19.90;91.00
72940;DHT22;61094;51.154;13.570;2023-09-07T21:34:57;19.80;90.00
72940;DHT22;61094;51.154;13.570;2023-09-07T21:39:59;19.70;91.20
72940;DHT22;61094;51.154;13.570;2023-09-07T21:45:01;19.50;93.40
72940;DHT22;61094;51.154;13.570;2023-09-07T21:50:05;19.40;94.00
72940;DHT22;61094;51.154;13.570;2023-09-07T21:55:08;19.20;95.50
72940;DHT22;61094;51.154;13.570;2023-09-07T22:00:10;19.10;95.20
72940;DHT22;61094;51.154;13.570;2023-09-07T22:05:14;19.00;96.20
72940;DHT22;61094;51.154;13.570;2023-09-07T22:10:16;18.90;93.90
72940;DHT22;61094;51.154;13.570;2023-09-07T22:15:17;18.80;95.00
72940;DHT22;61094;51.154;13.570;2023-09-07T22:20:20;18.70;96.80
72940;DHT22;61094;51.154;13.570;2023-09-07T22:25:23;18.60;97.00
72940;DHT22;61094;51.154;13.570;2023-09-07T22:30:24;18.50;98.60
72940;DHT22;61094;51.154;13.570;2023-09-07T22:35:28;18.40;98.60
72940;DHT22;61094;51.154;13.570;2023-09-07T22:40:31;18.30;99.00
72940;DHT22;61094;51.154;13.570;2023-09-07T22:45:34;18.20;96.90
72940;DHT22;61094;51.154;13.570;2023-09-07T22:50:38;18.10;97.70
72940;DHT22;61094;51.154;13.570;2023-09-07T22:55:41;18.10;99.90
72940;DHT22;61094;51.154;13.570;2023-09-07T23:00:45;18.00;99.90
72940;DHT22;61094;51.154;13.570;2023-09-07T23:05:48;18.00;99.60
72940;DHT22;61094;51.154;13.570;2023-09-07T23:10:51;17.80;99.50
72940;DHT22;61094;51.154;13.570;2023-09-07T23:15:53;17.70;99.90
72940;DHT22;61094;51.154;13.570;2023-09-07T23:20:56;17.60;99.90
72940;DHT22;61094;51.154;13.570;2023-09-07T23:25:58;17.50;99.90
72940;DHT22;61094;51.154;13.570;2023-09-07T23:31:00;17.40;99.90
72940;DHT22;61094;51.154;13.570;2023-09-07T23:36:04;17.30;99.90
72940;DHT22;61094;51.154;13.570;2023-09-07T23:41:07;17.20;99.90
72940;DHT22;61094;51.154;13.570;2023-09-07T23:46:09;17.10;99.90
72940;DHT22;61094;51.154;13.570;2023-09-07T23:51:12;17.10;99.90
72940;DHT22;61094;51.154;13.570;2023-09-07T23:56:14;17.10;99.90
